PWSweather.com
Personal Weather Stations
Station Observations
KCOGRAND2
Redlands, Southcamp Road & Dakota Circle, Grand Junction, CO 81507

Redlands, Southcamp Road & Dakota CircleGrand Junction, CO 81507

Lat: 39.055, Lon: -108.637

Elevation: 4870

Station Type: RadioShack WX200

High Low Average
Temperature 47.5°F8.6°C 23.5°F-4.7°C 34.7°F1.5°C
Dew Point 15.8°F-9.0°C -4.5°F-20.3°C 11.3°F-11.5°C
Winds 10.0 mph 16.1 kmh Calm Calm 5.0 mph SSE8.0 kmh SSE
Wind Gusts 15.4 mph24.8 kmh -- 8.0 mph12.9 kmh
Humidity 64% 11% 41%
Pressure 25.19 in853.0 mb 25.07 in849.0 mb -
Precipitation 0.00 in0.0 mm - -
Hour Temp Dew Point Humidity Winds Wind Gusts Pressure Precip Precip Rate Daily Precip Total
12:02 AM 31.8°F-0.1°C 11.8°F-11.2°C 43% 1.0 mph WNW1.6 kmh WNW 3.1 mph5.0 kmh 25.16 in852.0 mb 0.00 in0.0 mm 0.00 in/hr0.0 mm/hr 0.00 in0.0 mm
12:07 AM 31.6°F-0.2°C 12.2°F-11.0°C 44% Calm Calm -- 25.16 in852.0 mb 0.00 in0.0 mm 0.00 in/hr0.0 mm/hr 0.00 in0.0 mm
12:12 AM 31.1°F-0.5°C 12.2°F-11.0°C 45% Calm Calm -- 25.16 in852.0 mb 0.00 in0.0 mm 0.00 in/hr0.0 mm/hr 0.00 in0.0 mm
12:18 AM 30.9°F-0.6°C 12.0°F-11.1°C 45% Calm Calm -- 25.16 in852.0 mb 0.00 in0.0 mm 0.00 in/hr0.0 mm/hr 0.00 in0.0 mm
12:23 AM 31.5°F-0.3°C 13.1°F-10.5°C 46% Calm Calm -- 25.19 in853.0 mb 0.00 in0.0 mm 0.00 in/hr0.0 mm/hr 0.00 in0.0 mm
12:28 AM 31.8°F-0.1°C 13.5°F-10.3°C 46% Calm Calm -- 25.19 in853.0 mb 0.00 in0.0 mm 0.00 in/hr0.0 mm/hr 0.00 in0.0 mm
12:34 AM 30.4°F-0.9°C 12.0°F-11.1°C 46% Calm Calm 3.6 mph5.8 kmh 25.19 in853.0 mb 0.00 in0.0 mm 0.00 in/hr0.0 mm/hr 0.00 in0.0 mm
12:39 AM 29.8°F-1.2°C 11.7°F-11.3°C 46% 2.0 mph W3.2 kmh W 4.9 mph7.9 kmh 25.16 in852.0 mb 0.00 in0.0 mm 0.00 in/hr0.0 mm/hr 0.00 in0.0 mm
12:50 AM 28.9°F-1.7°C 12.7°F-10.7°C 50% 3.0 mph SE4.8 kmh SE 5.4 mph8.7 kmh 25.16 in852.0 mb 0.00 in0.0 mm 0.00 in/hr0.0 mm/hr 0.00 in0.0 mm
12:55 AM 29.5°F-1.4°C 13.6°F-10.2°C 51% 3.0 mph SE4.8 kmh SE 4.5 mph7.2 kmh 25.16 in852.0 mb 0.00 in0.0 mm 0.00 in/hr0.0 mm/hr 0.00 in0.0 mm
01:00 AM 29.7°F-1.3°C 13.3°F-10.4°C 50% 3.0 mph SE4.8 kmh SE 4.5 mph7.2 kmh 25.16 in852.0 mb 0.00 in0.0 mm 0.00 in/hr0.0 mm/hr 0.00 in0.0 mm
01:11 AM 30.0°F-1.1°C 13.6°F-10.2°C 50% 4.0 mph SE6.4 kmh SE 5.4 mph8.7 kmh 25.16 in852.0 mb 0.00 in0.0 mm 0.00 in/hr0.0 mm/hr 0.00 in0.0 mm
01:16 AM 30.4°F-0.9°C 13.5°F-10.3°C 49% 3.0 mph ESE4.8 kmh ESE 4.5 mph7.2 kmh 25.16 in852.0 mb 0.00 in0.0 mm 0.00 in/hr0.0 mm/hr 0.00 in0.0 mm
01:22 AM 30.6°F-0.8°C 13.3°F-10.4°C 48% 3.0 mph SE4.8 kmh SE 6.3 mph10.1 kmh 25.16 in852.0 mb 0.00 in0.0 mm 0.00 in/hr0.0 mm/hr 0.00 in0.0 mm
01:27 AM 30.2°F-1.0°C 12.9°F-10.6°C 48% 2.0 mph S3.2 kmh S 3.6 mph5.8 kmh 25.16 in852.0 mb 0.00 in0.0 mm 0.00 in/hr0.0 mm/hr 0.00 in0.0 mm
01:32 AM 29.8°F-1.2°C 13.1°F-10.5°C 49% Calm Calm 2.7 mph4.3 kmh 25.16 in852.0 mb 0.00 in0.0 mm 0.00 in/hr0.0 mm/hr 0.00 in0.0 mm
01:38 AM 29.5°F-1.4°C 12.7°F-10.7°C 49% Calm Calm -- 25.16 in852.0 mb 0.00 in0.0 mm 0.00 in/hr0.0 mm/hr 0.00 in0.0 mm
01:43 AM 30.2°F-1.0°C 13.8°F-10.1°C 50% Calm Calm 3.1 mph5.0 kmh 25.16 in852.0 mb 0.00 in0.0 mm 0.00 in/hr0.0 mm/hr 0.00 in0.0 mm
01:48 AM 31.3°F-0.4°C 13.8°F-10.1°C 48% 2.0 mph S3.2 kmh S 4.5 mph7.2 kmh 25.16 in852.0 mb 0.00 in0.0 mm 0.00 in/hr0.0 mm/hr 0.00 in0.0 mm
01:54 AM 32.0°F0.0°C 14.5°F-9.7°C 48% 2.0 mph SSE3.2 kmh SSE 4.9 mph7.9 kmh 25.16 in852.0 mb 0.00 in0.0 mm 0.00 in/hr0.0 mm/hr 0.00 in0.0 mm
01:59 AM 33.3°F0.7°C 14.7°F-9.6°C 46% 4.0 mph SE6.4 kmh SE 6.3 mph10.1 kmh 25.16 in852.0 mb 0.00 in0.0 mm 0.00 in/hr0.0 mm/hr 0.00 in0.0 mm
02:04 AM 32.5°F0.3°C 13.1°F-10.5°C 44% 4.0 mph ESE6.4 kmh ESE 5.8 mph9.3 kmh 25.16 in852.0 mb 0.00 in0.0 mm 0.00 in/hr0.0 mm/hr 0.00 in0.0 mm
02:10 AM 32.7°F0.4°C 13.3°F-10.4°C 44% 3.0 mph SE4.8 kmh SE 4.9 mph7.9 kmh 25.16 in852.0 mb 0.00 in0.0 mm 0.00 in/hr0.0 mm/hr 0.00 in0.0 mm
02:15 AM 32.2°F0.1°C 12.2°F-11.0°C 43% 1.0 mph SE1.6 kmh SE -- 25.16 in852.0 mb 0.00 in0.0 mm 0.00 in/hr0.0 mm/hr 0.00 in0.0 mm
02:20 AM 30.7°F-0.7°C 11.5°F-11.4°C 44% 1.0 mph SE1.6 kmh SE 4.0 mph6.4 kmh 25.16 in852.0 mb 0.00 in0.0 mm 0.00 in/hr0.0 mm/hr 0.00 in0.0 mm
02:26 AM 29.3°F-1.5°C 11.1°F-11.6°C 46% 2.0 mph SE3.2 kmh SE 3.6 mph5.8 kmh 25.16 in852.0 mb 0.00 in0.0 mm 0.00 in/hr0.0 mm/hr 0.00 in0.0 mm
02:31 AM 29.5°F-1.4°C 12.7°F-10.7°C 49% 1.0 mph SE1.6 kmh SE 4.0 mph6.4 kmh 25.16 in852.0 mb 0.00 in0.0 mm 0.00 in/hr0.0 mm/hr 0.00 in0.0 mm
02:36 AM 30.2°F-1.0°C 12.9°F-10.6°C 48% 2.0 mph SE3.2 kmh SE 3.6 mph5.8 kmh 25.16 in852.0 mb 0.00 in0.0 mm 0.00 in/hr0.0 mm/hr 0.00 in0.0 mm
02:47 AM 31.3°F-0.4°C 13.5°F-10.3°C 47% 2.0 mph SE3.2 kmh SE 4.0 mph6.4 kmh 25.16 in852.0 mb 0.00 in0.0 mm 0.00 in/hr0.0 mm/hr 0.00 in0.0 mm
02:52 AM 29.3°F-1.5°C 11.7°F-11.3°C 47% 3.0 mph ESE4.8 kmh ESE 4.5 mph7.2 kmh 25.16 in852.0 mb 0.00 in0.0 mm 0.00 in/hr0.0 mm/hr 0.00 in0.0 mm
02:58 AM 26.8°F-2.9°C 11.5°F-11.4°C 52% 3.0 mph ESE4.8 kmh ESE 5.4 mph8.7 kmh 25.16 in852.0 mb 0.00 in0.0 mm 0.00 in/hr0.0 mm/hr 0.00 in0.0 mm
03:03 AM 28.4°F-2.0°C 13.8°F-10.1°C 54% 4.0 mph ESE6.4 kmh ESE 5.8 mph9.3 kmh 25.16 in852.0 mb 0.00 in0.0 mm 0.00 in/hr0.0 mm/hr 0.00 in0.0 mm
03:08 AM 27.1°F-2.7°C 12.7°F-10.7°C 54% 3.0 mph ESE4.8 kmh ESE 5.8 mph9.3 kmh 25.16 in852.0 mb 0.00 in0.0 mm 0.00 in/hr0.0 mm/hr 0.00 in0.0 mm
03:14 AM 26.8°F-2.9°C 13.3°F-10.4°C 56% 3.0 mph SE4.8 kmh SE 6.3 mph10.1 kmh 25.16 in852.0 mb 0.00 in0.0 mm 0.00 in/hr0.0 mm/hr 0.00 in0.0 mm
03:19 AM 26.6°F-3.0°C 13.5°F-10.3°C 57% 3.0 mph SSE4.8 kmh SSE 4.0 mph6.4 kmh 25.16 in852.0 mb 0.00 in0.0 mm 0.00 in/hr0.0 mm/hr 0.00 in0.0 mm
03:24 AM 26.6°F-3.0°C 13.8°F-10.1°C 58% 3.0 mph SSE4.8 kmh SSE 4.0 mph6.4 kmh 25.16 in852.0 mb 0.00 in0.0 mm 0.00 in/hr0.0 mm/hr 0.00 in0.0 mm
03:30 AM 27.0°F-2.8°C 14.5°F-9.7°C 59% 3.0 mph SE4.8 kmh SE 5.8 mph9.3 kmh 25.16 in852.0 mb 0.00 in0.0 mm 0.00 in/hr0.0 mm/hr 0.00 in0.0 mm
03:35 AM 28.2°F-2.1°C 15.8°F-9.0°C 59% 4.0 mph SE6.4 kmh SE 5.8 mph9.3 kmh 25.16 in852.0 mb 0.00 in0.0 mm 0.00 in/hr0.0 mm/hr 0.00 in0.0 mm
03:40 AM 27.7°F-2.4°C 14.5°F-9.7°C 57% 5.0 mph SE8.0 kmh SE 6.7 mph10.8 kmh 25.16 in852.0 mb 0.00 in0.0 mm 0.00 in/hr0.0 mm/hr 0.00 in0.0 mm
03:46 AM 26.2°F-3.2°C 13.5°F-10.3°C 58% 5.0 mph SE8.0 kmh SE 6.3 mph10.1 kmh 25.16 in852.0 mb 0.00 in0.0 mm 0.00 in/hr0.0 mm/hr 0.00 in0.0 mm
03:51 AM 25.7°F-3.5°C 13.8°F-10.1°C 60% 3.0 mph SE4.8 kmh SE 3.1 mph5.0 kmh 25.13 in851.0 mb 0.00 in0.0 mm 0.00 in/hr0.0 mm/hr 0.00 in0.0 mm
03:56 AM 25.5°F-3.6°C 13.6°F-10.2°C 60% 1.0 mph SE1.6 kmh SE 3.6 mph5.8 kmh 25.13 in851.0 mb 0.00 in0.0 mm 0.00 in/hr0.0 mm/hr 0.00 in0.0 mm
04:02 AM 26.1°F-3.3°C 14.2°F-9.9°C 60% Calm Calm 3.1 mph5.0 kmh 25.13 in851.0 mb 0.00 in0.0 mm 0.00 in/hr0.0 mm/hr 0.00 in0.0 mm
04:07 AM 26.4°F-3.1°C 14.4°F-9.8°C 60% Calm Calm 2.7 mph4.3 kmh 25.16 in852.0 mb 0.00 in0.0 mm 0.00 in/hr0.0 mm/hr 0.00 in0.0 mm
04:12 AM 26.6°F-3.0°C 14.5°F-9.7°C 60% Calm Calm -- 25.16 in852.0 mb 0.00 in0.0 mm 0.00 in/hr0.0 mm/hr 0.00 in0.0 mm
04:18 AM 27.0°F-2.8°C 14.5°F-9.7°C 59% Calm Calm 3.6 mph5.8 kmh 25.16 in852.0 mb 0.00 in0.0 mm 0.00 in/hr0.0 mm/hr 0.00 in0.0 mm
04:23 AM 27.5°F-2.5°C 14.7°F-9.6°C 58% Calm Calm 3.6 mph5.8 kmh 25.16 in852.0 mb 0.00 in0.0 mm 0.00 in/hr0.0 mm/hr 0.00 in0.0 mm
04:28 AM 27.5°F-2.5°C 14.4°F-9.8°C 57% Calm Calm -- 25.16 in852.0 mb 0.00 in0.0 mm 0.00 in/hr0.0 mm/hr 0.00 in0.0 mm
04:34 AM 27.5°F-2.5°C 14.4°F-9.8°C 57% Calm Calm -- 25.16 in852.0 mb 0.00 in0.0 mm 0.00 in/hr0.0 mm/hr 0.00 in0.0 mm
04:39 AM 27.9°F-2.3°C 14.2°F-9.9°C 56% Calm Calm -- 25.16 in852.0 mb 0.00 in0.0 mm 0.00 in/hr0.0 mm/hr 0.00 in0.0 mm
04:44 AM 27.1°F-2.7°C 13.1°F-10.5°C 55% Calm Calm -- 25.16 in852.0 mb 0.00 in0.0 mm 0.00 in/hr0.0 mm/hr 0.00 in0.0 mm
04:50 AM 27.0°F-2.8°C 13.5°F-10.3°C 56% Calm Calm 4.0 mph6.4 kmh 25.16 in852.0 mb 0.00 in0.0 mm 0.00 in/hr0.0 mm/hr 0.00 in0.0 mm
04:55 AM 27.1°F-2.7°C 14.0°F-10.0°C 57% Calm Calm 3.1 mph5.0 kmh 25.16 in852.0 mb 0.00 in0.0 mm 0.00 in/hr0.0 mm/hr 0.00 in0.0 mm
05:00 AM 27.1°F-2.7°C 14.0°F-10.0°C 57% Calm Calm -- 25.16 in852.0 mb 0.00 in0.0 mm 0.00 in/hr0.0 mm/hr 0.00 in0.0 mm
05:06 AM 27.5°F-2.5°C 13.8°F-10.1°C 56% Calm Calm -- 25.16 in852.0 mb 0.00 in0.0 mm 0.00 in/hr0.0 mm/hr 0.00 in0.0 mm
05:11 AM 28.0°F-2.2°C 14.4°F-9.8°C 56% Calm Calm -- 25.16 in852.0 mb 0.00 in0.0 mm 0.00 in/hr0.0 mm/hr 0.00 in0.0 mm
05:16 AM 28.4°F-2.0°C 13.8°F-10.1°C 54% 2.0 mph SE3.2 kmh SE 4.9 mph7.9 kmh 25.16 in852.0 mb 0.00 in0.0 mm 0.00 in/hr0.0 mm/hr 0.00 in0.0 mm
05:22 AM 28.0°F-2.2°C 13.1°F-10.5°C 53% 4.0 mph E6.4 kmh E 6.3 mph10.1 kmh 25.16 in852.0 mb 0.00 in0.0 mm 0.00 in/hr0.0 mm/hr 0.00 in0.0 mm
05:27 AM 27.7°F-2.4°C 12.7°F-10.7°C 53% 4.0 mph E6.4 kmh E 5.4 mph8.7 kmh 25.16 in852.0 mb 0.00 in0.0 mm 0.00 in/hr0.0 mm/hr 0.00 in0.0 mm
05:32 AM 27.1°F-2.7°C 12.7°F-10.7°C 54% 4.0 mph E6.4 kmh E 5.4 mph8.7 kmh 25.16 in852.0 mb 0.00 in0.0 mm 0.00 in/hr0.0 mm/hr 0.00 in0.0 mm
05:38 AM 26.4°F-3.1°C 12.4°F-10.9°C 55% 4.0 mph E6.4 kmh E 6.3 mph10.1 kmh 25.16 in852.0 mb 0.00 in0.0 mm 0.00 in/hr0.0 mm/hr 0.00 in0.0 mm
05:43 AM 25.9°F-3.4°C 12.4°F-10.9°C 56% 5.0 mph SE8.0 kmh SE 6.9 mph11.1 kmh 25.16 in852.0 mb 0.00 in0.0 mm 0.00 in/hr0.0 mm/hr 0.00 in0.0 mm
05:48 AM 25.5°F-3.6°C 12.4°F-10.9°C 57% 5.0 mph SE8.0 kmh SE 6.3 mph10.1 kmh 25.16 in852.0 mb 0.00 in0.0 mm 0.00 in/hr0.0 mm/hr 0.00 in0.0 mm
05:54 AM 24.4°F-4.2°C 11.8°F-11.2°C 58% 4.0 mph SE6.4 kmh SE 5.8 mph9.3 kmh 25.16 in852.0 mb 0.00 in0.0 mm 0.00 in/hr0.0 mm/hr 0.00 in0.0 mm
05:59 AM 24.6°F-4.1°C 12.4°F-10.9°C 59% 4.0 mph SE6.4 kmh SE 4.9 mph7.9 kmh 25.16 in852.0 mb 0.00 in0.0 mm 0.00 in/hr0.0 mm/hr 0.00 in0.0 mm
06:04 AM 24.6°F-4.1°C 12.7°F-10.7°C 60% 3.0 mph SE4.8 kmh SE 4.5 mph7.2 kmh 25.16 in852.0 mb 0.00 in0.0 mm 0.00 in/hr0.0 mm/hr 0.00 in0.0 mm
06:10 AM 25.0°F-3.9°C 13.5°F-10.3°C 61% 4.0 mph SE6.4 kmh SE 4.9 mph7.9 kmh 25.16 in852.0 mb 0.00 in0.0 mm 0.00 in/hr0.0 mm/hr 0.00 in0.0 mm
06:15 AM 23.9°F-4.5°C 12.4°F-10.9°C 61% 3.0 mph SE4.8 kmh SE 4.9 mph7.9 kmh 25.16 in852.0 mb 0.00 in0.0 mm 0.00 in/hr0.0 mm/hr 0.00 in0.0 mm
06:20 AM 23.5°F-4.7°C 12.4°F-10.9°C 62% Calm Calm -- 25.16 in852.0 mb 0.00 in0.0 mm 0.00 in/hr0.0 mm/hr 0.00 in0.0 mm
06:26 AM 23.7°F-4.6°C 12.9°F-10.6°C 63% Calm Calm 3.6 mph5.8 kmh 25.16 in852.0 mb 0.00 in0.0 mm 0.00 in/hr0.0 mm/hr 0.00 in0.0 mm
06:31 AM 25.9°F-3.4°C 15.4°F-9.2°C 64% 2.0 mph SE3.2 kmh SE 5.4 mph8.7 kmh 25.16 in852.0 mb 0.00 in0.0 mm 0.00 in/hr0.0 mm/hr 0.00 in0.0 mm
06:36 AM 26.4°F-3.1°C 14.9°F-9.5°C 61% 4.0 mph E6.4 kmh E 6.9 mph11.1 kmh 25.16 in852.0 mb 0.00 in0.0 mm 0.00 in/hr0.0 mm/hr 0.00 in0.0 mm
06:42 AM 25.0°F-3.9°C 12.4°F-10.9°C 58% 3.0 mph ESE4.8 kmh ESE 8.3 mph13.4 kmh 25.16 in852.0 mb 0.00 in0.0 mm 0.00 in/hr0.0 mm/hr 0.00 in0.0 mm
06:47 AM 27.0°F-2.8°C 13.8°F-10.1°C 57% 4.0 mph SE6.4 kmh SE 9.6 mph15.4 kmh 25.16 in852.0 mb 0.00 in0.0 mm 0.00 in/hr0.0 mm/hr 0.00 in0.0 mm
06:52 AM 24.6°F-4.1°C 11.7°F-11.3°C 57% 4.0 mph SE6.4 kmh SE 5.4 mph8.7 kmh 25.16 in852.0 mb 0.00 in0.0 mm 0.00 in/hr0.0 mm/hr 0.00 in0.0 mm
06:58 AM 24.3°F-4.3°C 12.0°F-11.1°C 59% 3.0 mph SSE4.8 kmh SSE 4.5 mph7.2 kmh 25.16 in852.0 mb 0.00 in0.0 mm 0.00 in/hr0.0 mm/hr 0.00 in0.0 mm
07:03 AM 24.1°F-4.4°C 12.2°F-11.0°C 60% 2.0 mph SSE3.2 kmh SSE 5.4 mph8.7 kmh 25.16 in852.0 mb 0.00 in0.0 mm 0.00 in/hr0.0 mm/hr 0.00 in0.0 mm
07:08 AM 25.2°F-3.8°C 13.6°F-10.2°C 61% 3.0 mph SE4.8 kmh SE 6.7 mph10.8 kmh 25.16 in852.0 mb 0.00 in0.0 mm 0.00 in/hr0.0 mm/hr 0.00 in0.0 mm
07:14 AM 25.3°F-3.7°C 13.8°F-10.1°C 61% 4.0 mph SE6.4 kmh SE 5.4 mph8.7 kmh 25.16 in852.0 mb 0.00 in0.0 mm 0.00 in/hr0.0 mm/hr 0.00 in0.0 mm
07:19 AM 25.7°F-3.5°C 13.8°F-10.1°C 60% 4.0 mph SE6.4 kmh SE 4.9 mph7.9 kmh 25.16 in852.0 mb 0.00 in0.0 mm 0.00 in/hr0.0 mm/hr 0.00 in0.0 mm
07:24 AM 26.1°F-3.3°C 14.2°F-9.9°C 60% 2.0 mph SE3.2 kmh SE 3.6 mph5.8 kmh 25.16 in852.0 mb 0.00 in0.0 mm 0.00 in/hr0.0 mm/hr 0.00 in0.0 mm
07:30 AM 26.6°F-3.0°C 14.2°F-9.9°C 59% 2.0 mph SE3.2 kmh SE 3.6 mph5.8 kmh 25.16 in852.0 mb 0.00 in0.0 mm 0.00 in/hr0.0 mm/hr 0.00 in0.0 mm
07:35 AM 27.5°F-2.5°C 15.1°F-9.4°C 59% 1.0 mph SE1.6 kmh SE 4.0 mph6.4 kmh 25.16 in852.0 mb 0.00 in0.0 mm 0.00 in/hr0.0 mm/hr 0.00 in0.0 mm
07:40 AM 28.4°F-2.0°C 15.1°F-9.4°C 57% 1.0 mph SE1.6 kmh SE 4.0 mph6.4 kmh 25.19 in853.0 mb 0.00 in0.0 mm 0.00 in/hr0.0 mm/hr 0.00 in0.0 mm
07:46 AM 29.3°F-1.5°C 15.6°F-9.1°C 56% 1.0 mph SE1.6 kmh SE 4.0 mph6.4 kmh 25.19 in853.0 mb 0.00 in0.0 mm 0.00 in/hr0.0 mm/hr 0.00 in0.0 mm
07:51 AM 29.7°F-1.3°C 15.4°F-9.2°C 55% 2.0 mph SE3.2 kmh SE 3.6 mph5.8 kmh 25.19 in853.0 mb 0.00 in0.0 mm 0.00 in/hr0.0 mm/hr 0.00 in0.0 mm
07:56 AM 29.8°F-1.2°C 14.4°F-9.8°C 52% 3.0 mph SE4.8 kmh SE 4.5 mph7.2 kmh 25.19 in853.0 mb 0.00 in0.0 mm 0.00 in/hr0.0 mm/hr 0.00 in0.0 mm
08:01 AM 30.6°F-0.8°C 14.5°F-9.7°C 51% 3.0 mph SE4.8 kmh SE 5.8 mph9.3 kmh 25.19 in853.0 mb 0.00 in0.0 mm 0.00 in/hr0.0 mm/hr 0.00 in0.0 mm
08:07 AM 31.3°F-0.4°C 13.8°F-10.1°C 48% 4.0 mph ESE6.4 kmh ESE 5.8 mph9.3 kmh 25.19 in853.0 mb 0.00 in0.0 mm 0.00 in/hr0.0 mm/hr 0.00 in0.0 mm
08:12 AM 31.3°F-0.4°C 12.9°F-10.6°C 46% 5.0 mph ESE8.0 kmh ESE 7.8 mph12.6 kmh 25.19 in853.0 mb 0.00 in0.0 mm 0.00 in/hr0.0 mm/hr 0.00 in0.0 mm
08:17 AM 30.9°F-0.6°C 12.6°F-10.8°C 46% 5.0 mph ESE8.0 kmh ESE 8.7 mph14.0 kmh 25.19 in853.0 mb 0.00 in0.0 mm 0.00 in/hr0.0 mm/hr 0.00 in0.0 mm
08:23 AM 30.2°F-1.0°C 12.0°F-11.1°C 46% 6.0 mph ESE9.7 kmh ESE 11.2 mph18.0 kmh 25.19 in853.0 mb 0.00 in0.0 mm 0.00 in/hr0.0 mm/hr 0.00 in0.0 mm
08:28 AM 30.4°F-0.9°C 12.6°F-10.8°C 47% 8.0 mph ESE12.9 kmh ESE 10.1 mph16.3 kmh 25.19 in853.0 mb 0.00 in0.0 mm 0.00 in/hr0.0 mm/hr 0.00 in0.0 mm
08:33 AM 29.8°F-1.2°C 12.6°F-10.8°C 48% 8.0 mph ESE12.9 kmh ESE 12.1 mph19.5 kmh 25.19 in853.0 mb 0.00 in0.0 mm 0.00 in/hr0.0 mm/hr 0.00 in0.0 mm
08:39 AM 29.5°F-1.4°C 12.7°F-10.7°C 49% 10.0 mph ESE16.1 kmh ESE 13.0 mph20.9 kmh 25.19 in853.0 mb 0.00 in0.0 mm 0.00 in/hr0.0 mm/hr 0.00 in0.0 mm
08:44 AM 29.5°F-1.4°C 12.7°F-10.7°C 49% 10.0 mph ESE16.1 kmh ESE 13.0 mph20.9 kmh 25.19 in853.0 mb 0.00 in0.0 mm 0.00 in/hr0.0 mm/hr 0.00 in0.0 mm
08:50 AM 30.2°F-1.0°C 13.8°F-10.1°C 50% 9.0 mph ESE14.5 kmh ESE 12.1 mph19.5 kmh 25.19 in853.0 mb 0.00 in0.0 mm 0.00 in/hr0.0 mm/hr 0.00 in0.0 mm
08:55 AM 30.7°F-0.7°C 13.5°F-10.3°C 48% 7.0 mph E11.3 kmh E 11.6 mph18.7 kmh 25.19 in853.0 mb 0.00 in0.0 mm 0.00 in/hr0.0 mm/hr 0.00 in0.0 mm
09:00 AM 31.8°F-0.1°C 14.0°F-10.0°C 47% 8.0 mph ESE12.9 kmh ESE 11.2 mph18.0 kmh 25.19 in853.0 mb 0.00 in0.0 mm 0.00 in/hr0.0 mm/hr 0.00 in0.0 mm
09:06 AM 32.7°F0.4°C 13.8°F-10.1°C 45% 8.0 mph SE12.9 kmh SE 11.2 mph18.0 kmh 25.19 in853.0 mb 0.00 in0.0 mm 0.00 in/hr0.0 mm/hr 0.00 in0.0 mm
09:11 AM 32.7°F0.4°C 12.7°F-10.7°C 43% 8.0 mph SE12.9 kmh SE 12.1 mph19.5 kmh 25.19 in853.0 mb 0.00 in0.0 mm 0.00 in/hr0.0 mm/hr 0.00 in0.0 mm
09:16 AM 33.6°F0.9°C 12.9°F-10.6°C 42% 8.0 mph SE12.9 kmh SE 12.1 mph19.5 kmh 25.19 in853.0 mb 0.00 in0.0 mm 0.00 in/hr0.0 mm/hr 0.00 in0.0 mm
09:22 AM 32.9°F0.5°C 11.8°F-11.2°C 41% 8.0 mph SE12.9 kmh SE 12.1 mph19.5 kmh 25.19 in853.0 mb 0.00 in0.0 mm 0.00 in/hr0.0 mm/hr 0.00 in0.0 mm
09:27 AM 33.1°F0.6°C 12.0°F-11.1°C 41% 8.0 mph ESE12.9 kmh ESE 10.1 mph16.3 kmh 25.19 in853.0 mb 0.00 in0.0 mm 0.00 in/hr0.0 mm/hr 0.00 in0.0 mm
09:32 AM 33.3°F0.7°C 12.2°F-11.0°C 41% 7.0 mph ESE11.3 kmh ESE 12.1 mph19.5 kmh 25.19 in853.0 mb 0.00 in0.0 mm 0.00 in/hr0.0 mm/hr 0.00 in0.0 mm
09:45 AM 34.5°F1.4°C 13.3°F-10.4°C 41% 5.0 mph SE8.0 kmh SE 7.8 mph12.6 kmh 25.19 in853.0 mb 0.00 in0.0 mm 0.00 in/hr0.0 mm/hr 0.00 in0.0 mm
09:50 AM 34.7°F1.5°C 12.9°F-10.6°C 40% 5.0 mph ESE8.0 kmh ESE 8.7 mph14.0 kmh 25.19 in853.0 mb 0.00 in0.0 mm 0.00 in/hr0.0 mm/hr 0.00 in0.0 mm
09:55 AM 34.5°F1.4°C 12.7°F-10.7°C 40% 6.0 mph E9.7 kmh E 9.6 mph15.4 kmh 25.19 in853.0 mb 0.00 in0.0 mm 0.00 in/hr0.0 mm/hr 0.00 in0.0 mm
10:00 AM 34.9°F1.6°C 13.1°F-10.5°C 40% 6.0 mph ESE9.7 kmh ESE 11.6 mph18.7 kmh 25.19 in853.0 mb 0.00 in0.0 mm 0.00 in/hr0.0 mm/hr 0.00 in0.0 mm
10:05 AM 34.9°F1.6°C 13.1°F-10.5°C 40% 6.0 mph ESE9.7 kmh ESE 9.2 mph14.8 kmh 25.19 in853.0 mb 0.00 in0.0 mm 0.00 in/hr0.0 mm/hr 0.00 in0.0 mm
10:10 AM 35.1°F1.7°C 13.3°F-10.4°C 40% 5.0 mph E8.0 kmh E 8.7 mph14.0 kmh 25.19 in853.0 mb 0.00 in0.0 mm 0.00 in/hr0.0 mm/hr 0.00 in0.0 mm
10:15 AM 35.4°F1.9°C 13.5°F-10.3°C 40% 5.0 mph E8.0 kmh E 8.7 mph14.0 kmh 25.19 in853.0 mb 0.00 in0.0 mm 0.00 in/hr0.0 mm/hr 0.00 in0.0 mm
10:20 AM 36.1°F2.3°C 13.6°F-10.2°C 39% 6.0 mph ESE9.7 kmh ESE 9.2 mph14.8 kmh 25.19 in853.0 mb 0.00 in0.0 mm 0.00 in/hr0.0 mm/hr 0.00 in0.0 mm
10:26 AM 36.3°F2.4°C 13.8°F-10.1°C 39% 6.0 mph ESE9.7 kmh ESE 11.0 mph17.7 kmh 25.19 in853.0 mb 0.00 in0.0 mm 0.00 in/hr0.0 mm/hr 0.00 in0.0 mm
10:31 AM 36.1°F2.3°C 12.4°F-10.9°C 37% 6.0 mph ESE9.7 kmh ESE 11.0 mph17.7 kmh 25.19 in853.0 mb 0.00 in0.0 mm 0.00 in/hr0.0 mm/hr 0.00 in0.0 mm
10:36 AM 36.5°F2.5°C 12.7°F-10.7°C 37% 6.0 mph ESE9.7 kmh ESE 9.6 mph15.4 kmh 25.19 in853.0 mb 0.00 in0.0 mm 0.00 in/hr0.0 mm/hr 0.00 in0.0 mm
10:41 AM 37.2°F2.9°C 12.7°F-10.7°C 36% 7.0 mph ESE11.3 kmh ESE 12.1 mph19.5 kmh 25.19 in853.0 mb 0.00 in0.0 mm 0.00 in/hr0.0 mm/hr 0.00 in0.0 mm
10:46 AM 37.4°F3.0°C 12.2°F-11.0°C 35% 7.0 mph SE11.3 kmh SE 11.0 mph17.7 kmh 25.19 in853.0 mb 0.00 in0.0 mm 0.00 in/hr0.0 mm/hr 0.00 in0.0 mm
10:51 AM 37.2°F2.9°C 12.2°F-11.0°C 35% 6.0 mph ESE9.7 kmh ESE 8.3 mph13.4 kmh 25.19 in853.0 mb 0.00 in0.0 mm 0.00 in/hr0.0 mm/hr 0.00 in0.0 mm
10:56 AM 37.2°F2.9°C 11.5°F-11.4°C 34% 6.0 mph E9.7 kmh E 9.6 mph15.4 kmh 25.19 in853.0 mb 0.00 in0.0 mm 0.00 in/hr0.0 mm/hr 0.00 in0.0 mm
11:01 AM 37.4°F3.0°C 11.7°F-11.3°C 34% 6.0 mph ESE9.7 kmh ESE 11.6 mph18.7 kmh 25.19 in853.0 mb 0.00 in0.0 mm 0.00 in/hr0.0 mm/hr 0.00 in0.0 mm
11:06 AM 38.5°F3.6°C 12.6°F-10.8°C 34% 6.0 mph E9.7 kmh E 13.4 mph21.6 kmh 25.16 in852.0 mb 0.00 in0.0 mm 0.00 in/hr0.0 mm/hr 0.00 in0.0 mm
11:11 AM 38.8°F3.8°C 12.2°F-11.0°C 33% 6.0 mph ESE9.7 kmh ESE 11.6 mph18.7 kmh 25.16 in852.0 mb 0.00 in0.0 mm 0.00 in/hr0.0 mm/hr 0.00 in0.0 mm
11:16 AM 39.6°F4.2°C 12.9°F-10.6°C 33% 6.0 mph SE9.7 kmh SE 11.2 mph18.0 kmh 25.16 in852.0 mb 0.00 in0.0 mm 0.00 in/hr0.0 mm/hr 0.00 in0.0 mm
11:21 AM 38.8°F3.8°C 11.5°F-11.4°C 32% 6.0 mph SE9.7 kmh SE 10.1 mph16.3 kmh 25.16 in852.0 mb 0.00 in0.0 mm 0.00 in/hr0.0 mm/hr 0.00 in0.0 mm
11:26 AM 38.8°F3.8°C 11.5°F-11.4°C 32% 6.0 mph SE9.7 kmh SE 9.2 mph14.8 kmh 25.16 in852.0 mb 0.00 in0.0 mm 0.00 in/hr0.0 mm/hr 0.00 in0.0 mm
11:31 AM 39.4°F4.1°C 12.0°F-11.1°C 32% 6.0 mph E9.7 kmh E 9.6 mph15.4 kmh 25.16 in852.0 mb 0.00 in0.0 mm 0.00 in/hr0.0 mm/hr 0.00 in0.0 mm
11:36 AM 39.7°F4.3°C 12.4°F-10.9°C 32% 6.0 mph E9.7 kmh E 9.6 mph15.4 kmh 25.16 in852.0 mb 0.00 in0.0 mm 0.00 in/hr0.0 mm/hr 0.00 in0.0 mm
11:41 AM 40.8°F4.9°C 12.6°F-10.8°C 31% 5.0 mph ESE8.0 kmh ESE 6.3 mph10.1 kmh 25.16 in852.0 mb 0.00 in0.0 mm 0.00 in/hr0.0 mm/hr 0.00 in0.0 mm
11:46 AM 40.8°F4.9°C 12.6°F-10.8°C 31% 5.0 mph ESE8.0 kmh ESE 8.3 mph13.4 kmh 25.16 in852.0 mb 0.00 in0.0 mm 0.00 in/hr0.0 mm/hr 0.00 in0.0 mm
11:51 AM 41.4°F5.2°C 13.1°F-10.5°C 31% 5.0 mph E8.0 kmh E 10.1 mph16.3 kmh 25.13 in851.0 mb 0.00 in0.0 mm 0.00 in/hr0.0 mm/hr 0.00 in0.0 mm
11:56 AM 41.7°F5.4°C 12.6°F-10.8°C 30% 4.0 mph ESE6.4 kmh ESE 8.7 mph14.0 kmh 25.13 in851.0 mb 0.00 in0.0 mm 0.00 in/hr0.0 mm/hr 0.00 in0.0 mm
12:01 PM 40.5°F4.7°C 11.5°F-11.4°C 30% 4.0 mph E6.4 kmh E 9.2 mph14.8 kmh 25.13 in851.0 mb 0.00 in0.0 mm 0.00 in/hr0.0 mm/hr 0.00 in0.0 mm
12:06 PM 41.4°F5.2°C 12.2°F-11.0°C 30% 5.0 mph ENE8.0 kmh ENE 7.8 mph12.6 kmh 25.13 in851.0 mb 0.00 in0.0 mm 0.00 in/hr0.0 mm/hr 0.00 in0.0 mm
12:11 PM 41.5°F5.3°C 12.4°F-10.9°C 30% 5.0 mph NE8.0 kmh NE 9.2 mph14.8 kmh 25.13 in851.0 mb 0.00 in0.0 mm 0.00 in/hr0.0 mm/hr 0.00 in0.0 mm
12:16 PM 42.6°F5.9°C 13.5°F-10.3°C 30% 5.0 mph NE8.0 kmh NE 7.8 mph12.6 kmh 25.13 in851.0 mb 0.00 in0.0 mm 0.00 in/hr0.0 mm/hr 0.00 in0.0 mm
12:21 PM 41.9°F5.5°C 12.0°F-11.1°C 29% 5.0 mph E8.0 kmh E 7.8 mph12.6 kmh 25.13 in851.0 mb 0.00 in0.0 mm 0.00 in/hr0.0 mm/hr 0.00 in0.0 mm
12:26 PM 42.1°F5.6°C 12.2°F-11.0°C 29% 5.0 mph E8.0 kmh E 8.3 mph13.4 kmh 25.13 in851.0 mb 0.00 in0.0 mm 0.00 in/hr0.0 mm/hr 0.00 in0.0 mm
12:36 PM 41.9°F5.5°C 12.0°F-11.1°C 29% 4.0 mph ENE6.4 kmh ENE 6.3 mph10.1 kmh 25.13 in851.0 mb 0.00 in0.0 mm 0.00 in/hr0.0 mm/hr 0.00 in0.0 mm
12:41 PM 43.0°F6.1°C 12.9°F-10.6°C 29% 4.0 mph ENE6.4 kmh ENE 7.4 mph11.9 kmh 25.13 in851.0 mb 0.00 in0.0 mm 0.00 in/hr0.0 mm/hr 0.00 in0.0 mm
12:51 PM 43.3°F6.3°C 13.3°F-10.4°C 29% 4.0 mph E6.4 kmh E 6.9 mph11.1 kmh 25.10 in850.0 mb 0.00 in0.0 mm 0.00 in/hr0.0 mm/hr 0.00 in0.0 mm
12:56 PM 43.5°F6.4°C 12.6°F-10.8°C 28% 4.0 mph E6.4 kmh E 7.8 mph12.6 kmh 25.10 in850.0 mb 0.00 in0.0 mm 0.00 in/hr0.0 mm/hr 0.00 in0.0 mm
01:01 PM 43.7°F6.5°C 12.7°F-10.7°C 28% 3.0 mph NE4.8 kmh NE 6.3 mph10.1 kmh 25.10 in850.0 mb 0.00 in0.0 mm 0.00 in/hr0.0 mm/hr 0.00 in0.0 mm
01:06 PM 43.5°F6.4°C 12.6°F-10.8°C 28% 4.0 mph NE6.4 kmh NE 6.3 mph10.1 kmh 25.10 in850.0 mb 0.00 in0.0 mm 0.00 in/hr0.0 mm/hr 0.00 in0.0 mm
01:11 PM 44.4°F6.9°C 13.5°F-10.3°C 28% 3.0 mph E4.8 kmh E 5.4 mph8.7 kmh 25.10 in850.0 mb 0.00 in0.0 mm 0.00 in/hr0.0 mm/hr 0.00 in0.0 mm
01:16 PM 44.8°F7.1°C 13.6°F-10.2°C 28% 3.0 mph ESE4.8 kmh ESE 5.4 mph8.7 kmh 25.10 in850.0 mb 0.00 in0.0 mm 0.00 in/hr0.0 mm/hr 0.00 in0.0 mm
01:21 PM 44.2°F6.8°C 13.3°F-10.4°C 28% 4.0 mph E6.4 kmh E 8.7 mph14.0 kmh 25.10 in850.0 mb 0.00 in0.0 mm 0.00 in/hr0.0 mm/hr 0.00 in0.0 mm
01:26 PM 44.6°F7.0°C 12.7°F-10.7°C 27% 4.0 mph NE6.4 kmh NE 10.1 mph16.3 kmh 25.10 in850.0 mb 0.00 in0.0 mm 0.00 in/hr0.0 mm/hr 0.00 in0.0 mm
01:31 PM 45.0°F7.2°C 13.1°F-10.5°C 27% 5.0 mph N8.0 kmh N 9.2 mph14.8 kmh 25.10 in850.0 mb 0.00 in0.0 mm 0.00 in/hr0.0 mm/hr 0.00 in0.0 mm
01:36 PM 44.8°F7.1°C 12.9°F-10.6°C 27% 6.0 mph N9.7 kmh N 12.1 mph19.5 kmh 25.10 in850.0 mb 0.00 in0.0 mm 0.00 in/hr0.0 mm/hr 0.00 in0.0 mm
01:41 PM 45.1°F7.3°C 11.5°F-11.4°C 25% 7.0 mph N11.3 kmh N 14.3 mph23.0 kmh 25.10 in850.0 mb 0.00 in0.0 mm 0.00 in/hr0.0 mm/hr 0.00 in0.0 mm
01:46 PM 45.1°F7.3°C 11.5°F-11.4°C 25% 8.0 mph N12.9 kmh N 12.5 mph20.1 kmh 25.10 in850.0 mb 0.00 in0.0 mm 0.00 in/hr0.0 mm/hr 0.00 in0.0 mm
01:51 PM 45.9°F7.7°C 11.1°F-11.6°C 24% 7.0 mph NNW11.3 kmh NNW 9.6 mph15.4 kmh 25.10 in850.0 mb 0.00 in0.0 mm 0.00 in/hr0.0 mm/hr 0.00 in0.0 mm
01:56 PM 46.0°F7.8°C 9.3°F-12.6°C 22% 6.0 mph N9.7 kmh N 8.7 mph14.0 kmh 25.10 in850.0 mb 0.00 in0.0 mm 0.00 in/hr0.0 mm/hr 0.00 in0.0 mm
02:01 PM 45.5°F7.5°C 9.0°F-12.8°C 22% 7.0 mph N11.3 kmh N 14.8 mph23.8 kmh 25.10 in850.0 mb 0.00 in0.0 mm 0.00 in/hr0.0 mm/hr 0.00 in0.0 mm
02:06 PM 45.9°F7.7°C 9.1°F-12.7°C 22% 8.0 mph NW12.9 kmh NW 12.1 mph19.5 kmh 25.10 in850.0 mb 0.00 in0.0 mm 0.00 in/hr0.0 mm/hr 0.00 in0.0 mm
02:11 PM 46.0°F7.8°C 6.1°F-14.4°C 19% 8.0 mph NW12.9 kmh NW 13.9 mph22.4 kmh 25.10 in850.0 mb 0.00 in0.0 mm 0.00 in/hr0.0 mm/hr 0.00 in0.0 mm
02:16 PM 45.9°F7.7°C 5.9°F-14.5°C 19% 9.0 mph NW14.5 kmh NW 13.0 mph20.9 kmh 25.10 in850.0 mb 0.00 in0.0 mm 0.00 in/hr0.0 mm/hr 0.00 in0.0 mm
02:21 PM 45.9°F7.7°C 5.9°F-14.5°C 19% 9.0 mph NW14.5 kmh NW 13.0 mph20.9 kmh 25.10 in850.0 mb 0.00 in0.0 mm 0.00 in/hr0.0 mm/hr 0.00 in0.0 mm
02:26 PM 45.9°F7.7°C 5.9°F-14.5°C 19% 9.0 mph NW14.5 kmh NW 13.9 mph22.4 kmh 25.10 in850.0 mb 0.00 in0.0 mm 0.00 in/hr0.0 mm/hr 0.00 in0.0 mm
02:31 PM 46.2°F7.9°C 9.5°F-12.5°C 22% 9.0 mph NW14.5 kmh NW 12.5 mph20.1 kmh 25.10 in850.0 mb 0.00 in0.0 mm 0.00 in/hr0.0 mm/hr 0.00 in0.0 mm
02:36 PM 46.4°F8.0°C 6.4°F-14.2°C 19% 9.0 mph NW14.5 kmh NW 13.0 mph20.9 kmh 25.10 in850.0 mb 0.00 in0.0 mm 0.00 in/hr0.0 mm/hr 0.00 in0.0 mm
02:41 PM 46.0°F7.8°C 6.1°F-14.4°C 19% 9.0 mph NW14.5 kmh NW 15.4 mph24.8 kmh 25.10 in850.0 mb 0.00 in0.0 mm 0.00 in/hr0.0 mm/hr 0.00 in0.0 mm
02:47 PM 46.8°F8.2°C 6.8°F-14.0°C 19% 8.0 mph NW12.9 kmh NW 11.0 mph17.7 kmh 25.10 in850.0 mb 0.00 in0.0 mm 0.00 in/hr0.0 mm/hr 0.00 in0.0 mm
02:52 PM 46.8°F8.2°C 6.8°F-14.0°C 19% 9.0 mph NW14.5 kmh NW 14.3 mph23.0 kmh 25.07 in849.0 mb 0.00 in0.0 mm 0.00 in/hr0.0 mm/hr 0.00 in0.0 mm
02:57 PM 46.8°F8.2°C 6.8°F-14.0°C 19% 9.0 mph NW14.5 kmh NW 13.4 mph21.6 kmh 25.07 in849.0 mb 0.00 in0.0 mm 0.00 in/hr0.0 mm/hr 0.00 in0.0 mm
03:02 PM 47.3°F8.5°C 7.2°F-13.8°C 19% 7.0 mph NW11.3 kmh NW 10.5 mph16.9 kmh 25.07 in849.0 mb 0.00 in0.0 mm 0.00 in/hr0.0 mm/hr 0.00 in0.0 mm
03:07 PM 46.6°F8.1°C 6.6°F-14.1°C 19% 6.0 mph NW9.7 kmh NW 10.1 mph16.3 kmh 25.07 in849.0 mb 0.00 in0.0 mm 0.00 in/hr0.0 mm/hr 0.00 in0.0 mm
03:12 PM 46.8°F8.2°C 4.3°F-15.4°C 17% 6.0 mph NW9.7 kmh NW 9.2 mph14.8 kmh 25.07 in849.0 mb 0.00 in0.0 mm 0.00 in/hr0.0 mm/hr 0.00 in0.0 mm
03:17 PM 46.8°F8.2°C 4.3°F-15.4°C 17% 6.0 mph NW9.7 kmh NW 10.5 mph16.9 kmh 25.07 in849.0 mb 0.00 in0.0 mm 0.00 in/hr0.0 mm/hr 0.00 in0.0 mm
03:22 PM 46.4°F8.0°C -0.2°F-17.9°C 14% 7.0 mph NW11.3 kmh NW 12.1 mph19.5 kmh 25.07 in849.0 mb 0.00 in0.0 mm 0.00 in/hr0.0 mm/hr 0.00 in0.0 mm
03:27 PM 46.4°F8.0°C -0.2°F-17.9°C 14% 9.0 mph NNW14.5 kmh NNW 14.3 mph23.0 kmh 25.07 in849.0 mb 0.00 in0.0 mm 0.00 in/hr0.0 mm/hr 0.00 in0.0 mm
03:32 PM 47.3°F8.5°C 0.5°F-17.5°C 14% 8.0 mph NNW12.9 kmh NNW 11.2 mph18.0 kmh 25.07 in849.0 mb 0.00 in0.0 mm 0.00 in/hr0.0 mm/hr 0.00 in0.0 mm
03:37 PM 47.3°F8.5°C 0.5°F-17.5°C 14% 8.0 mph NW12.9 kmh NW 12.5 mph20.1 kmh 25.07 in849.0 mb 0.00 in0.0 mm 0.00 in/hr0.0 mm/hr 0.00 in0.0 mm
03:42 PM 47.3°F8.5°C 0.5°F-17.5°C 14% 9.0 mph NW14.5 kmh NW 12.5 mph20.1 kmh 25.07 in849.0 mb 0.00 in0.0 mm 0.00 in/hr0.0 mm/hr 0.00 in0.0 mm
03:47 PM 47.3°F8.5°C 0.5°F-17.5°C 14% 9.0 mph NW14.5 kmh NW 13.9 mph22.4 kmh 25.07 in849.0 mb 0.00 in0.0 mm 0.00 in/hr0.0 mm/hr 0.00 in0.0 mm
03:52 PM 47.5°F8.6°C 0.7°F-17.4°C 14% 9.0 mph NW14.5 kmh NW 13.9 mph22.4 kmh 25.07 in849.0 mb 0.00 in0.0 mm 0.00 in/hr0.0 mm/hr 0.00 in0.0 mm
03:57 PM 47.1°F8.4°C 0.5°F-17.5°C 14% 10.0 mph NW16.1 kmh NW 15.4 mph24.8 kmh 25.07 in849.0 mb 0.00 in0.0 mm 0.00 in/hr0.0 mm/hr 0.00 in0.0 mm
04:02 PM 47.1°F8.4°C 0.5°F-17.5°C 14% 10.0 mph NW16.1 kmh NW 13.9 mph22.4 kmh 25.07 in849.0 mb 0.00 in0.0 mm 0.00 in/hr0.0 mm/hr 0.00 in0.0 mm
04:07 PM 47.5°F8.6°C -4.4°F-20.2°C 11% 10.0 mph NW16.1 kmh NW 13.4 mph21.6 kmh 25.07 in849.0 mb 0.00 in0.0 mm 0.00 in/hr0.0 mm/hr 0.00 in0.0 mm
04:12 PM 47.3°F8.5°C -4.5°F-20.3°C 11% 10.0 mph NW16.1 kmh NW 14.3 mph23.0 kmh 25.07 in849.0 mb 0.00 in0.0 mm 0.00 in/hr0.0 mm/hr 0.00 in0.0 mm
04:17 PM 47.5°F8.6°C -4.4°F-20.2°C 11% 10.0 mph NW16.1 kmh NW 12.5 mph20.1 kmh 25.07 in849.0 mb 0.00 in0.0 mm 0.00 in/hr0.0 mm/hr 0.00 in0.0 mm
04:22 PM 47.3°F8.5°C -4.5°F-20.3°C 11% 9.0 mph NW14.5 kmh NW 14.3 mph23.0 kmh 25.07 in849.0 mb 0.00 in0.0 mm 0.00 in/hr0.0 mm/hr 0.00 in0.0 mm
04:27 PM 47.3°F8.5°C -2.7°F-19.3°C 12% 10.0 mph NW16.1 kmh NW 13.0 mph20.9 kmh 25.07 in849.0 mb 0.00 in0.0 mm 0.00 in/hr0.0 mm/hr 0.00 in0.0 mm
04:32 PM 47.1°F8.4°C -2.9°F-19.4°C 12% 9.0 mph NW14.5 kmh NW 12.1 mph19.5 kmh 25.07 in849.0 mb 0.00 in0.0 mm 0.00 in/hr0.0 mm/hr 0.00 in0.0 mm
04:37 PM 47.3°F8.5°C -2.7°F-19.3°C 12% 8.0 mph NW12.9 kmh NW 11.6 mph18.7 kmh 25.07 in849.0 mb 0.00 in0.0 mm 0.00 in/hr0.0 mm/hr 0.00 in0.0 mm
04:42 PM 46.9°F8.3°C 0.3°F-17.6°C 14% 9.0 mph NW14.5 kmh NW 13.0 mph20.9 kmh 25.07 in849.0 mb 0.00 in0.0 mm 0.00 in/hr0.0 mm/hr 0.00 in0.0 mm
04:47 PM 46.6°F8.1°C -3.3°F-19.6°C 12% 9.0 mph WNW14.5 kmh WNW 12.5 mph20.1 kmh 25.07 in849.0 mb 0.00 in0.0 mm 0.00 in/hr0.0 mm/hr 0.00 in0.0 mm
04:52 PM 46.0°F7.8°C -0.4°F-18.0°C 14% 8.0 mph NW12.9 kmh NW 11.2 mph18.0 kmh 25.07 in849.0 mb 0.00 in0.0 mm 0.00 in/hr0.0 mm/hr 0.00 in0.0 mm
04:57 PM 45.5°F7.5°C -0.9°F-18.3°C 14% 8.0 mph NW12.9 kmh NW 11.0 mph17.7 kmh 25.07 in849.0 mb 0.00 in0.0 mm 0.00 in/hr0.0 mm/hr 0.00 in0.0 mm
05:02 PM 45.3°F7.4°C 0.5°F-17.5°C 15% 7.0 mph NW11.3 kmh NW 8.7 mph14.0 kmh 25.07 in849.0 mb 0.00 in0.0 mm 0.00 in/hr0.0 mm/hr 0.00 in0.0 mm
05:07 PM 44.8°F7.1°C 0.0°F-17.8°C 15% 6.0 mph NW9.7 kmh NW 7.4 mph11.9 kmh 25.07 in849.0 mb 0.00 in0.0 mm 0.00 in/hr0.0 mm/hr 0.00 in0.0 mm
05:12 PM 44.1°F6.7°C -0.6°F-18.1°C 15% 5.0 mph NW8.0 kmh NW 6.7 mph10.8 kmh 25.07 in849.0 mb 0.00 in0.0 mm 0.00 in/hr0.0 mm/hr 0.00 in0.0 mm
05:17 PM 43.5°F6.4°C 2.8°F-16.2°C 18% 5.0 mph WNW8.0 kmh WNW 6.7 mph10.8 kmh 25.07 in849.0 mb 0.00 in0.0 mm 0.00 in/hr0.0 mm/hr 0.00 in0.0 mm
05:22 PM 43.0°F6.1°C 2.5°F-16.4°C 18% 4.0 mph WNW6.4 kmh WNW 5.8 mph9.3 kmh 25.07 in849.0 mb 0.00 in0.0 mm 0.00 in/hr0.0 mm/hr 0.00 in0.0 mm
05:27 PM 42.8°F6.0°C 2.3°F-16.5°C 18% 4.0 mph WNW6.4 kmh WNW 4.9 mph7.9 kmh 25.07 in849.0 mb 0.00 in0.0 mm 0.00 in/hr0.0 mm/hr 0.00 in0.0 mm
05:32 PM 43.0°F6.1°C 2.5°F-16.4°C 18% 4.0 mph WNW6.4 kmh WNW 5.4 mph8.7 kmh 25.07 in849.0 mb 0.00 in0.0 mm 0.00 in/hr0.0 mm/hr 0.00 in0.0 mm
05:37 PM 43.3°F6.3°C 2.7°F-16.3°C 18% 4.0 mph W6.4 kmh W 6.3 mph10.1 kmh 25.07 in849.0 mb 0.00 in0.0 mm 0.00 in/hr0.0 mm/hr 0.00 in0.0 mm
05:42 PM 43.3°F6.3°C 5.0°F-15.0°C 20% 4.0 mph WSW6.4 kmh WSW 6.3 mph10.1 kmh 25.07 in849.0 mb 0.00 in0.0 mm 0.00 in/hr0.0 mm/hr 0.00 in0.0 mm
05:47 PM 43.3°F6.3°C 5.0°F-15.0°C 20% 4.0 mph WSW6.4 kmh WSW 5.8 mph9.3 kmh 25.07 in849.0 mb 0.00 in0.0 mm 0.00 in/hr0.0 mm/hr 0.00 in0.0 mm
05:52 PM 43.0°F6.1°C 4.6°F-15.2°C 20% 4.0 mph WSW6.4 kmh WSW 4.9 mph7.9 kmh 25.07 in849.0 mb 0.00 in0.0 mm 0.00 in/hr0.0 mm/hr 0.00 in0.0 mm
05:57 PM 42.6°F5.9°C 4.5°F-15.3°C 20% 3.0 mph W4.8 kmh W 4.9 mph7.9 kmh 25.07 in849.0 mb 0.00 in0.0 mm 0.00 in/hr0.0 mm/hr 0.00 in0.0 mm
06:02 PM 42.1°F5.6°C 3.9°F-15.6°C 20% 2.0 mph W3.2 kmh W 4.5 mph7.2 kmh 25.07 in849.0 mb 0.00 in0.0 mm 0.00 in/hr0.0 mm/hr 0.00 in0.0 mm
06:07 PM 41.9°F5.5°C 6.8°F-14.0°C 23% 3.0 mph W4.8 kmh W 6.3 mph10.1 kmh 25.07 in849.0 mb 0.00 in0.0 mm 0.00 in/hr0.0 mm/hr 0.00 in0.0 mm
06:12 PM 41.9°F5.5°C 6.8°F-14.0°C 23% 4.0 mph W6.4 kmh W 7.4 mph11.9 kmh 25.07 in849.0 mb 0.00 in0.0 mm 0.00 in/hr0.0 mm/hr 0.00 in0.0 mm
06:17 PM 42.1°F5.6°C 7.0°F-13.9°C 23% 5.0 mph W8.0 kmh W 7.8 mph12.6 kmh 25.07 in849.0 mb 0.00 in0.0 mm 0.00 in/hr0.0 mm/hr 0.00 in0.0 mm
06:22 PM 41.9°F5.5°C 6.8°F-14.0°C 23% 5.0 mph W8.0 kmh W 7.4 mph11.9 kmh 25.07 in849.0 mb 0.00 in0.0 mm 0.00 in/hr0.0 mm/hr 0.00 in0.0 mm
06:27 PM 41.4°F5.2°C 6.4°F-14.2°C 23% 5.0 mph WNW8.0 kmh WNW 6.9 mph11.1 kmh 25.07 in849.0 mb 0.00 in0.0 mm 0.00 in/hr0.0 mm/hr 0.00 in0.0 mm
06:32 PM 42.1°F5.6°C 7.0°F-13.9°C 23% 6.0 mph NW9.7 kmh NW 11.2 mph18.0 kmh 25.07 in849.0 mb 0.00 in0.0 mm 0.00 in/hr0.0 mm/hr 0.00 in0.0 mm
06:37 PM 41.7°F5.4°C 9.3°F-12.6°C 26% 6.0 mph NW9.7 kmh NW 8.7 mph14.0 kmh 25.10 in850.0 mb 0.00 in0.0 mm 0.00 in/hr0.0 mm/hr 0.00 in0.0 mm
06:42 PM 41.4°F5.2°C 10.8°F-11.8°C 28% 6.0 mph NW9.7 kmh NW 8.7 mph14.0 kmh 25.10 in850.0 mb 0.00 in0.0 mm 0.00 in/hr0.0 mm/hr 0.00 in0.0 mm
06:47 PM 40.6°F4.8°C 10.9°F-11.7°C 29% 6.0 mph NW9.7 kmh NW 7.4 mph11.9 kmh 25.10 in850.0 mb 0.00 in0.0 mm 0.00 in/hr0.0 mm/hr 0.00 in0.0 mm
06:52 PM 39.7°F4.3°C 10.9°F-11.7°C 30% 5.0 mph NW8.0 kmh NW 6.3 mph10.1 kmh 25.10 in850.0 mb 0.00 in0.0 mm 0.00 in/hr0.0 mm/hr 0.00 in0.0 mm
06:57 PM 39.6°F4.2°C 12.2°F-11.0°C 32% 4.0 mph NW6.4 kmh NW 6.7 mph10.8 kmh 25.10 in850.0 mb 0.00 in0.0 mm 0.00 in/hr0.0 mm/hr 0.00 in0.0 mm
07:02 PM 39.9°F4.4°C 13.1°F-10.5°C 33% 4.0 mph NW6.4 kmh NW 7.4 mph11.9 kmh 25.10 in850.0 mb 0.00 in0.0 mm 0.00 in/hr0.0 mm/hr 0.00 in0.0 mm
07:07 PM 39.4°F4.1°C 13.5°F-10.3°C 34% 4.0 mph NW6.4 kmh NW 6.3 mph10.1 kmh 25.10 in850.0 mb 0.00 in0.0 mm 0.00 in/hr0.0 mm/hr 0.00 in0.0 mm
07:28 PM 39.0°F3.9°C 14.4°F-9.8°C 36% 3.0 mph NW4.8 kmh NW 4.9 mph7.9 kmh 25.10 in850.0 mb 0.00 in0.0 mm 0.00 in/hr0.0 mm/hr 0.00 in0.0 mm
07:33 PM 38.8°F3.8°C 14.2°F-9.9°C 36% 2.0 mph NW3.2 kmh NW 4.5 mph7.2 kmh 25.10 in850.0 mb 0.00 in0.0 mm 0.00 in/hr0.0 mm/hr 0.00 in0.0 mm
07:38 PM 38.8°F3.8°C 13.6°F-10.2°C 35% 3.0 mph NW4.8 kmh NW 5.8 mph9.3 kmh 25.10 in850.0 mb 0.00 in0.0 mm 0.00 in/hr0.0 mm/hr 0.00 in0.0 mm
07:43 PM 38.5°F3.6°C 13.3°F-10.4°C 35% 4.0 mph NW6.4 kmh NW 6.3 mph10.1 kmh 25.10 in850.0 mb 0.00 in0.0 mm 0.00 in/hr0.0 mm/hr 0.00 in0.0 mm
07:48 PM 37.9°F3.3°C 13.5°F-10.3°C 36% 4.0 mph WNW6.4 kmh WNW 4.9 mph7.9 kmh 25.10 in850.0 mb 0.00 in0.0 mm 0.00 in/hr0.0 mm/hr 0.00 in0.0 mm
07:53 PM 37.4°F3.0°C 12.9°F-10.6°C 36% 2.0 mph W3.2 kmh W 4.0 mph6.4 kmh 25.10 in850.0 mb 0.00 in0.0 mm 0.00 in/hr0.0 mm/hr 0.00 in0.0 mm
07:58 PM 37.4°F3.0°C 14.2°F-9.9°C 38% 2.0 mph WSW3.2 kmh WSW 5.4 mph8.7 kmh 25.10 in850.0 mb 0.00 in0.0 mm 0.00 in/hr0.0 mm/hr 0.00 in0.0 mm
08:03 PM 37.6°F3.1°C 14.4°F-9.8°C 38% 3.0 mph WSW4.8 kmh WSW 4.9 mph7.9 kmh 25.10 in850.0 mb 0.00 in0.0 mm 0.00 in/hr0.0 mm/hr 0.00 in0.0 mm
08:08 PM 37.0°F2.8°C 13.8°F-10.1°C 38% 3.0 mph WSW4.8 kmh WSW 4.0 mph6.4 kmh 25.10 in850.0 mb 0.00 in0.0 mm 0.00 in/hr0.0 mm/hr 0.00 in0.0 mm
08:13 PM 37.6°F3.1°C 14.4°F-9.8°C 38% 3.0 mph W4.8 kmh W 3.6 mph5.8 kmh 25.10 in850.0 mb 0.00 in0.0 mm 0.00 in/hr0.0 mm/hr 0.00 in0.0 mm
08:18 PM 37.8°F3.2°C 14.5°F-9.7°C 38% 2.0 mph W3.2 kmh W 4.0 mph6.4 kmh 25.10 in850.0 mb 0.00 in0.0 mm 0.00 in/hr0.0 mm/hr 0.00 in0.0 mm
08:23 PM 37.9°F3.3°C 14.0°F-10.0°C 37% 2.0 mph SW3.2 kmh SW 4.9 mph7.9 kmh 25.10 in850.0 mb 0.00 in0.0 mm 0.00 in/hr0.0 mm/hr 0.00 in0.0 mm
08:28 PM 36.9°F2.7°C 13.1°F-10.5°C 37% 3.0 mph SSE4.8 kmh SSE 5.4 mph8.7 kmh 25.10 in850.0 mb 0.00 in0.0 mm 0.00 in/hr0.0 mm/hr 0.00 in0.0 mm
08:33 PM 36.1°F2.3°C 13.6°F-10.2°C 39% 4.0 mph SE6.4 kmh SE 5.4 mph8.7 kmh 25.10 in850.0 mb 0.00 in0.0 mm 0.00 in/hr0.0 mm/hr 0.00 in0.0 mm
08:38 PM 36.9°F2.7°C 14.2°F-9.9°C 39% 3.0 mph ESE4.8 kmh ESE 4.5 mph7.2 kmh 25.10 in850.0 mb 0.00 in0.0 mm 0.00 in/hr0.0 mm/hr 0.00 in0.0 mm
08:43 PM 36.7°F2.6°C 14.0°F-10.0°C 39% 3.0 mph ESE4.8 kmh ESE 3.6 mph5.8 kmh 25.10 in850.0 mb 0.00 in0.0 mm 0.00 in/hr0.0 mm/hr 0.00 in0.0 mm
08:48 PM 35.8°F2.1°C 13.3°F-10.4°C 39% 2.0 mph SE3.2 kmh SE 4.5 mph7.2 kmh 25.10 in850.0 mb 0.00 in0.0 mm 0.00 in/hr0.0 mm/hr 0.00 in0.0 mm
08:53 PM 34.3°F1.3°C 12.6°F-10.8°C 40% 2.0 mph S3.2 kmh S 4.0 mph6.4 kmh 25.10 in850.0 mb 0.00 in0.0 mm 0.00 in/hr0.0 mm/hr 0.00 in0.0 mm
08:58 PM 34.7°F1.5°C 13.5°F-10.3°C 41% 1.0 mph SW1.6 kmh SW 3.1 mph5.0 kmh 25.10 in850.0 mb 0.00 in0.0 mm 0.00 in/hr0.0 mm/hr 0.00 in0.0 mm
09:03 PM 35.2°F1.8°C 14.0°F-10.0°C 41% Calm Calm 3.1 mph5.0 kmh 25.10 in850.0 mb 0.00 in0.0 mm 0.00 in/hr0.0 mm/hr 0.00 in0.0 mm
09:08 PM 35.4°F1.9°C 14.0°F-10.0°C 41% Calm Calm 2.7 mph4.3 kmh 25.10 in850.0 mb 0.00 in0.0 mm 0.00 in/hr0.0 mm/hr 0.00 in0.0 mm
09:13 PM 35.2°F1.8°C 14.0°F-10.0°C 41% 1.0 mph SW1.6 kmh SW 3.6 mph5.8 kmh 25.10 in850.0 mb 0.00 in0.0 mm 0.00 in/hr0.0 mm/hr 0.00 in0.0 mm
09:18 PM 34.7°F1.5°C 13.5°F-10.3°C 41% 1.0 mph SW1.6 kmh SW 3.1 mph5.0 kmh 25.10 in850.0 mb 0.00 in0.0 mm 0.00 in/hr0.0 mm/hr 0.00 in0.0 mm
09:23 PM 34.5°F1.4°C 13.8°F-10.1°C 42% Calm Calm 3.6 mph5.8 kmh 25.10 in850.0 mb 0.00 in0.0 mm 0.00 in/hr0.0 mm/hr 0.00 in0.0 mm
09:28 PM 35.4°F1.9°C 14.0°F-10.0°C 41% 1.0 mph SW1.6 kmh SW 4.0 mph6.4 kmh 25.10 in850.0 mb 0.00 in0.0 mm 0.00 in/hr0.0 mm/hr 0.00 in0.0 mm
09:34 PM 36.0°F2.2°C 14.5°F-9.7°C 41% 2.0 mph SW3.2 kmh SW 4.0 mph6.4 kmh 25.10 in850.0 mb 0.00 in0.0 mm 0.00 in/hr0.0 mm/hr 0.00 in0.0 mm
09:39 PM 35.6°F2.0°C 13.6°F-10.2°C 40% 2.0 mph SW3.2 kmh SW 3.6 mph5.8 kmh 25.13 in851.0 mb 0.00 in0.0 mm 0.00 in/hr0.0 mm/hr 0.00 in0.0 mm
09:44 PM 34.9°F1.6°C 13.6°F-10.2°C 41% 2.0 mph SW3.2 kmh SW 5.4 mph8.7 kmh 25.13 in851.0 mb 0.00 in0.0 mm 0.00 in/hr0.0 mm/hr 0.00 in0.0 mm
09:49 PM 34.2°F1.2°C 12.9°F-10.6°C 41% 1.0 mph WSW1.6 kmh WSW 2.7 mph4.3 kmh 25.13 in851.0 mb 0.00 in0.0 mm 0.00 in/hr0.0 mm/hr 0.00 in0.0 mm
09:54 PM 33.6°F0.9°C 12.9°F-10.6°C 42% 1.0 mph WSW1.6 kmh WSW 4.5 mph7.2 kmh 25.13 in851.0 mb 0.00 in0.0 mm 0.00 in/hr0.0 mm/hr 0.00 in0.0 mm
09:59 PM 33.3°F0.7°C 13.3°F-10.4°C 43% 3.0 mph SW4.8 kmh SW 6.9 mph11.1 kmh 25.13 in851.0 mb 0.00 in0.0 mm 0.00 in/hr0.0 mm/hr 0.00 in0.0 mm
10:04 PM 33.8°F1.0°C 13.6°F-10.2°C 43% 4.0 mph SW6.4 kmh SW 8.7 mph14.0 kmh 25.13 in851.0 mb 0.00 in0.0 mm 0.00 in/hr0.0 mm/hr 0.00 in0.0 mm
10:09 PM 34.2°F1.2°C 14.0°F-10.0°C 43% 4.0 mph SW6.4 kmh SW 7.8 mph12.6 kmh 25.13 in851.0 mb 0.00 in0.0 mm 0.00 in/hr0.0 mm/hr 0.00 in0.0 mm
10:14 PM 33.8°F1.0°C 13.6°F-10.2°C 43% 3.0 mph WSW4.8 kmh WSW 6.7 mph10.8 kmh 25.13 in851.0 mb 0.00 in0.0 mm 0.00 in/hr0.0 mm/hr 0.00 in0.0 mm
10:19 PM 34.3°F1.3°C 14.2°F-9.9°C 43% 4.0 mph WSW6.4 kmh WSW 7.8 mph12.6 kmh 25.13 in851.0 mb 0.00 in0.0 mm 0.00 in/hr0.0 mm/hr 0.00 in0.0 mm
10:24 PM 34.0°F1.1°C 13.8°F-10.1°C 43% 4.0 mph WSW6.4 kmh WSW 4.9 mph7.9 kmh 25.13 in851.0 mb 0.00 in0.0 mm 0.00 in/hr0.0 mm/hr 0.00 in0.0 mm
10:29 PM 33.8°F1.0°C 13.1°F-10.5°C 42% 2.0 mph SW3.2 kmh SW 4.0 mph6.4 kmh 25.13 in851.0 mb 0.00 in0.0 mm 0.00 in/hr0.0 mm/hr 0.00 in0.0 mm
10:34 PM 33.8°F1.0°C 13.6°F-10.2°C 43% Calm Calm 2.7 mph4.3 kmh 25.13 in851.0 mb 0.00 in0.0 mm 0.00 in/hr0.0 mm/hr 0.00 in0.0 mm
10:39 PM 33.8°F1.0°C 13.6°F-10.2°C 43% Calm Calm -- 25.13 in851.0 mb 0.00 in0.0 mm 0.00 in/hr0.0 mm/hr 0.00 in0.0 mm
10:44 PM 33.6°F0.9°C 12.9°F-10.6°C 42% Calm Calm 3.1 mph5.0 kmh 25.13 in851.0 mb 0.00 in0.0 mm 0.00 in/hr0.0 mm/hr 0.00 in0.0 mm
10:49 PM 33.8°F1.0°C 13.1°F-10.5°C 42% Calm Calm 2.7 mph4.3 kmh 25.13 in851.0 mb 0.00 in0.0 mm 0.00 in/hr0.0 mm/hr 0.00 in0.0 mm
10:54 PM 33.8°F1.0°C 13.1°F-10.5°C 42% Calm Calm -- 25.13 in851.0 mb 0.00 in0.0 mm 0.00 in/hr0.0 mm/hr 0.00 in0.0 mm
10:59 PM 33.4°F0.8°C 12.9°F-10.6°C 42% Calm Calm 4.0 mph6.4 kmh 25.13 in851.0 mb 0.00 in0.0 mm 0.00 in/hr0.0 mm/hr 0.00 in0.0 mm
11:04 PM 33.3°F0.7°C 12.7°F-10.7°C 42% 2.0 mph SW3.2 kmh SW 6.9 mph11.1 kmh 25.13 in851.0 mb 0.00 in0.0 mm 0.00 in/hr0.0 mm/hr 0.00 in0.0 mm
11:09 PM 33.8°F1.0°C 13.1°F-10.5°C 42% 4.0 mph SW6.4 kmh SW 6.9 mph11.1 kmh 25.13 in851.0 mb 0.00 in0.0 mm 0.00 in/hr0.0 mm/hr 0.00 in0.0 mm
11:14 PM 33.8°F1.0°C 13.1°F-10.5°C 42% 4.0 mph SW6.4 kmh SW 8.3 mph13.4 kmh 25.13 in851.0 mb 0.00 in0.0 mm 0.00 in/hr0.0 mm/hr 0.00 in0.0 mm
11:19 PM 33.6°F0.9°C 12.9°F-10.6°C 42% 4.0 mph WSW6.4 kmh WSW 6.9 mph11.1 kmh 25.13 in851.0 mb 0.00 in0.0 mm 0.00 in/hr0.0 mm/hr 0.00 in0.0 mm
11:24 PM 33.8°F1.0°C 13.1°F-10.5°C 42% 4.0 mph WSW6.4 kmh WSW 7.4 mph11.9 kmh 25.13 in851.0 mb 0.00 in0.0 mm 0.00 in/hr0.0 mm/hr 0.00 in0.0 mm
11:29 PM 33.8°F1.0°C 12.6°F-10.8°C 41% 4.0 mph WSW6.4 kmh WSW 6.7 mph10.8 kmh 25.13 in851.0 mb 0.00 in0.0 mm 0.00 in/hr0.0 mm/hr 0.00 in0.0 mm
11:34 PM 33.6°F0.9°C 12.4°F-10.9°C 41% 4.0 mph WSW6.4 kmh WSW 4.9 mph7.9 kmh 25.13 in851.0 mb 0.00 in0.0 mm 0.00 in/hr0.0 mm/hr 0.00 in0.0 mm
11:39 PM 33.3°F0.7°C 12.7°F-10.7°C 42% 3.0 mph WSW4.8 kmh WSW 4.5 mph7.2 kmh 25.13 in851.0 mb 0.00 in0.0 mm 0.00 in/hr0.0 mm/hr 0.00 in0.0 mm
11:44 PM 32.9°F0.5°C 12.4°F-10.9°C 42% 3.0 mph WSW4.8 kmh WSW 4.9 mph7.9 kmh 25.13 in851.0 mb 0.00 in0.0 mm 0.00 in/hr0.0 mm/hr 0.00 in0.0 mm
11:49 PM 32.7°F0.4°C 12.7°F-10.7°C 43% 3.0 mph WSW4.8 kmh WSW 4.5 mph7.2 kmh 25.13 in851.0 mb 0.00 in0.0 mm 0.00 in/hr0.0 mm/hr 0.00 in0.0 mm
11:54 PM 32.7°F0.4°C 12.7°F-10.7°C 43% 2.0 mph W3.2 kmh W 4.5 mph7.2 kmh 25.13 in851.0 mb 0.00 in0.0 mm 0.00 in/hr0.0 mm/hr 0.00 in0.0 mm
11:59 PM 32.5°F0.3°C 12.6°F-10.8°C 43% 2.0 mph W3.2 kmh W 4.9 mph7.9 kmh 25.13 in851.0 mb 0.00 in0.0 mm 0.00 in/hr0.0 mm/hr 0.00 in0.0 mm